Time;durP1;ratioP1;P1;durP2;ratioP2;P2;SDS_P1;SDS_P2;PMS_P1;PMS_P2;Temp;Humidity;BMP_temperature;BMP_pressure;BME280_temperature;BME280_humidity;BME280_pressure;Samples;Min_cycle;Max_cycle;Signal;HPM_P1;HPM_P2
2023/05/13 00:00:30;;;;;;;10.55;5.45;;;;;;;;;;10247325;28;20522;-84
2023/05/13 00:05:31;;;;;;;10.32;5.80;;;;;;;;;;10221786;29;20039;-85
2023/05/13 00:10:33;;;;;;;14.35;6.65;;;;;;;;;;10234803;28;20058;-85
2023/05/13 00:15:34;;;;;;;16.27;6.82;;;;;;;;;;10206145;29;20503;-86
2023/05/13 00:20:35;;;;;;;14.02;7.22;;;;;;;;;;10206126;29;20142;-85
2023/05/13 00:25:36;;;;;;;12.67;6.17;;;;;;;;;;10239744;28;20027;-84
2023/05/13 00:30:37;;;;;;;15.07;6.55;;;;;;;;;;10245158;28;20484;-84
2023/05/13 00:35:38;;;;;;;12.52;6.20;;;;;;;;;;10247461;28;20126;-86
2023/05/13 00:40:39;;;;;;;15.68;6.38;;;;;;;;;;10246425;28;20495;-84
2023/05/13 00:45:40;;;;;;;12.73;6.10;;;;;;;;;;10221788;28;20388;-86
2023/05/13 00:50:43;;;;;;;15.48;7.18;;;;;;;;;;10242445;28;20031;-84
2023/05/13 00:55:45;;;;;;;12.68;6.97;;;;;;;;;;10245744;28;20070;-84
2023/05/13 01:01:09;;;;;;;14.60;7.57;;;;;;;;;;10244756;28;20054;-84
2023/05/13 01:06:11;;;;;;;8.87;6.27;;;;;;;;;;10194435;29;20039;-84
2023/05/13 01:11:20;;;;;;;8.57;4.93;;;;;;;;;;10242115;28;20027;-84
2023/05/13 01:16:26;;;;;;;10.53;5.07;;;;;;;;;;10241689;28;20110;-85
2023/05/13 01:21:27;;;;;;;7.67;5.00;;;;;;;;;;10236217;28;20046;-83
2023/05/13 01:26:28;;;;;;;10.53;5.80;;;;;;;;;;10227715;28;20067;-86
2023/05/13 01:31:29;;;;;;;10.27;5.40;;;;;;;;;;10238815;23;20156;-86
2023/05/13 01:36:31;;;;;;;12.10;5.50;;;;;;;;;;10227186;29;20042;-85
2023/05/13 01:41:32;;;;;;;10.53;5.30;;;;;;;;;;10214130;29;20074;-85
2023/05/13 01:46:33;;;;;;;8.93;5.57;;;;;;;;;;10242472;28;20066;-86
2023/05/13 01:51:35;;;;;;;7.10;4.83;;;;;;;;;;10226234;29;20043;-85
2023/05/13 01:56:37;;;;;;;9.30;5.17;;;;;;;;;;10224282;28;20066;-84
2023/05/13 02:01:39;;;;;;;8.57;5.07;;;;;;;;;;10225469;28;20496;-86
2023/05/13 02:06:40;;;;;;;12.63;5.33;;;;;;;;;;10243431;28;20118;-84
2023/05/13 02:11:41;;;;;;;10.30;5.30;;;;;;;;;;10225672;29;20055;-85
2023/05/13 02:16:42;;;;;;;7.17;5.13;;;;;;;;;;10238629;28;20118;-84
2023/05/13 02:21:43;;;;;;;10.70;5.43;;;;;;;;;;10242402;29;20194;-86
2023/05/13 02:26:44;;;;;;;10.67;5.10;;;;;;;;;;10221129;28;20031;-85
2023/05/13 02:31:45;;;;;;;8.10;5.03;;;;;;;;;;10279732;28;20022;-86
2023/05/13 02:36:47;;;;;;;10.00;5.93;;;;;;;;;;10287358;28;20066;-84
2023/05/13 02:41:48;;;;;;;11.97;5.60;;;;;;;;;;10282319;28;20052;-84
2023/05/13 02:46:50;;;;;;;11.77;5.80;;;;;;;;;;10279433;28;20086;-85
2023/05/13 02:51:51;;;;;;;8.17;5.43;;;;;;;;;;10281053;28;20689;-84
2023/05/13 02:56:51;;;;;;;12.30;6.00;;;;;;;;;;10281866;28;20092;-84
2023/05/13 03:01:52;;;;;;;14.63;6.20;;;;;;;;;;10279227;28;20035;-84
2023/05/13 03:06:54;;;;;;;11.73;6.63;;;;;;;;;;10279985;28;20479;-85
2023/05/13 03:11:55;;;;;;;10.90;6.03;;;;;;;;;;10280808;28;20038;-83
2023/05/13 03:16:57;;;;;;;9.70;5.73;;;;;;;;;;10278139;28;20214;-83
2023/05/13 03:21:58;;;;;;;9.43;6.20;;;;;;;;;;10280227;28;20098;-86
2023/05/13 03:26:59;;;;;;;11.37;6.53;;;;;;;;;;10261786;28;20093;-85
2023/05/13 03:32:00;;;;;;;11.87;6.80;;;;;;;;;;10253348;28;20082;-85
2023/05/13 03:37:01;;;;;;;15.17;7.30;;;;;;;;;;10280070;28;20038;-84
2023/05/13 03:42:03;;;;;;;16.93;7.73;;;;;;;;;;10262591;28;20058;-86
2023/05/13 03:47:04;;;;;;;14.47;7.53;;;;;;;;;;10251568;28;20074;-82
2023/05/13 03:52:08;;;;;;;11.40;7.47;;;;;;;;;;10278840;28;20366;-84
2023/05/13 03:57:09;;;;;;;12.17;7.50;;;;;;;;;;10260608;28;20568;-84
2023/05/13 04:02:10;;;;;;;11.83;6.80;;;;;;;;;;10258428;28;20035;-83
2023/05/13 04:07:11;;;;;;;11.87;7.60;;;;;;;;;;10283314;28;20042;-83
2023/05/13 04:12:12;;;;;;;13.43;7.67;;;;;;;;;;10261316;28;20045;-84
2023/05/13 04:17:13;;;;;;;13.43;7.63;;;;;;;;;;10276436;28;20067;-84
2023/05/13 04:22:14;;;;;;;15.93;8.37;;;;;;;;;;10259597;28;20047;-86
2023/05/13 04:27:15;;;;;;;18.07;7.87;;;;;;;;;;10279025;28;20488;-84
2023/05/13 04:32:20;;;;;;;11.70;8.07;;;;;;;;;;10275314;28;20047;-86
2023/05/13 04:37:21;;;;;;;13.20;8.83;;;;;;;;;;10286124;28;20428;-85
2023/05/13 04:42:22;;;;;;;14.33;8.00;;;;;;;;;;10284680;28;20290;-85
2023/05/13 04:47:23;;;;;;;17.47;10.40;;;;;;;;;;10268584;28;20438;-89
2023/05/13 04:52:24;;;;;;;18.53;9.37;;;;;;;;;;10286520;28;20101;-86
2023/05/13 04:57:25;;;;;;;19.70;9.90;;;;;;;;;;10284412;28;20066;-84
2023/05/13 05:02:28;;;;;;;12.47;7.77;;;;;;;;;;10255219;28;20066;-86
2023/05/13 05:07:30;;;;;;;17.15;8.75;;;;;;;;;;10271102;28;20049;-85
2023/05/13 05:12:31;;;;;;;17.73;9.60;;;;;;;;;;10283329;28;20495;-85
2023/05/13 05:17:32;;;;;;;18.33;9.48;;;;;;;;;;10254080;28;20388;-86
2023/05/13 05:22:35;;;;;;;12.50;8.27;;;;;;;;;;10261934;28;20149;-88
2023/05/13 05:27:36;;;;;;;13.90;7.90;;;;;;;;;;10262989;28;20126;-87
2023/05/13 05:32:37;;;;;;;21.85;9.18;;;;;;;;;;10262666;28;20035;-84
2023/05/13 05:37:38;;;;;;;19.40;9.15;;;;;;;;;;10274990;28;20126;-85
2023/05/13 05:42:39;;;;;;;24.38;11.18;;;;;;;;;;10252791;28;20044;-85
2023/05/13 05:47:40;;;;;;;23.42;11.32;;;;;;;;;;10275489;28;20034;-88
2023/05/13 05:52:41;;;;;;;18.23;10.15;;;;;;;;;;10281821;28;20042;-85
2023/05/13 05:57:42;;;;;;;31.60;11.77;;;;;;;;;;10275215;28;20047;-86
2023/05/13 06:02:43;;;;;;;20.88;10.35;;;;;;;;;;10255384;28;20027;-85
2023/05/13 06:07:44;;;;;;;21.50;9.40;;;;;;;;;;10278114;28;20387;-88
2023/05/13 06:12:45;;;;;;;16.20;8.05;;;;;;;;;;10280165;28;20070;-88
2023/05/13 06:17:46;;;;;;;12.20;6.85;;;;;;;;;;10249104;28;20039;-85
2023/05/13 06:22:47;;;;;;;9.18;5.90;;;;;;;;;;10280943;28;20022;-88
2023/05/13 06:27:48;;;;;;;7.53;4.57;;;;;;;;;;10261371;28;20055;-86
2023/05/13 06:32:49;;;;;;;6.93;4.88;;;;;;;;;;10262792;28;20126;-86
2023/05/13 06:37:50;;;;;;;4.60;3.53;;;;;;;;;;10277859;28;20054;-86
2023/05/13 06:42:51;;;;;;;5.43;4.47;;;;;;;;;;10265444;28;20043;-84
2023/05/13 06:47:52;;;;;;;6.90;4.30;;;;;;;;;;10253942;28;20066;-88
2023/05/13 06:52:53;;;;;;;5.80;3.47;;;;;;;;;;10278647;28;20708;-86
2023/05/13 06:57:54;;;;;;;6.07;3.40;;;;;;;;;;10278155;28;20118;-85
2023/05/13 07:02:55;;;;;;;6.97;3.42;;;;;;;;;;10245829;28;20038;-88
2023/05/13 07:07:57;;;;;;;6.30;4.43;;;;;;;;;;10265044;28;20066;-85
2023/05/13 07:12:58;;;;;;;3.42;2.38;;;;;;;;;;10265264;28;20039;-87
2023/05/13 07:17:59;;;;;;;3.92;3.05;;;;;;;;;;10278074;28;20106;-87
2023/05/13 07:23:00;;;;;;;9.80;3.63;;;;;;;;;;10256292;28;20035;-84
2023/05/13 07:28:01;;;;;;;3.47;2.70;;;;;;;;;;10272827;28;20050;-86
2023/05/13 07:33:04;;;;;;;7.80;4.43;;;;;;;;;;10259428;28;20031;-85
2023/05/13 07:38:09;;;;;;;8.88;3.22;;;;;;;;;;10276833;28;20066;-82
2023/05/13 07:43:10;;;;;;;5.73;3.60;;;;;;;;;;10277818;28;20062;-84
2023/05/13 07:48:11;;;;;;;10.55;4.20;;;;;;;;;;10273669;28;20031;-82
2023/05/13 07:53:12;;;;;;;11.55;3.83;;;;;;;;;;10260394;28;20027;-83
2023/05/13 07:58:13;;;;;;;6.10;3.25;;;;;;;;;;10277505;28;20417;-86
2023/05/13 08:03:31;;;;;;;9.25;3.63;;;;;;;;;;10269372;28;20023;-84
2023/05/13 08:08:52;;;;;;;6.00;3.30;;;;;;;;;;10287463;28;20038;-87
2023/05/13 08:13:54;;;;;;;8.02;4.00;;;;;;;;;;10263815;28;20078;-84
2023/05/13 08:19:00;;;;;;;8.60;4.95;;;;;;;;;;10257830;28;20218;-89
2023/05/13 08:24:26;;;;;;;5.82;2.97;;;;;;;;;;10262346;28;20030;-87
2023/05/13 08:35:06;;;;;;;8.00;3.65;;;;;;;;;;10247130;29;20935;-85
2023/05/13 08:40:07;;;;;;;6.65;3.83;;;;;;;;;;10229454;29;20035;-86
2023/05/13 09:02:05;;;;;;;6.03;3.08;;;;;;;;;;10243831;29;20423;-85
2023/05/13 09:07:06;;;;;;;6.32;2.92;;;;;;;;;;10242993;29;20031;-86
2023/05/13 09:12:07;;;;;;;16.70;5.93;;;;;;;;;;10228350;29;20023;-85
2023/05/13 09:17:08;;;;;;;5.70;3.03;;;;;;;;;;10213029;29;20054;-87
2023/05/13 09:22:16;;;;;;;5.55;2.75;;;;;;;;;;10228932;29;20443;-84
2023/05/13 09:27:19;;;;;;;7.07;3.20;;;;;;;;;;10227908;28;20099;-87
2023/05/13 09:32:42;;;;;;;6.03;2.78;;;;;;;;;;10208741;29;20031;-84
2023/05/13 09:37:44;;;;;;;4.40;2.78;;;;;;;;;;10227238;29;20344;-83
2023/05/13 09:42:46;;;;;;;4.85;2.50;;;;;;;;;;10216181;29;20038;-83
2023/05/13 09:47:51;;;;;;;4.10;2.13;;;;;;;;;;10244765;29;20476;-83
2023/05/13 09:52:52;;;;;;;8.05;2.50;;;;;;;;;;10242575;29;20031;-84
2023/05/13 09:57:53;;;;;;;5.68;2.10;;;;;;;;;;10243162;29;20491;-86
2023/05/13 10:02:54;;;;;;;3.88;2.80;;;;;;;;;;10239059;29;20020;-83
2023/05/13 10:14:01;;;;;;;8.70;2.40;;;;;;;;;;10074497;29;20513;-83
2023/05/13 10:19:18;;;;;;;3.92;2.17;;;;;;;;;;10228355;28;20123;-81
2023/05/13 10:24:20;;;;;;;5.00;2.25;;;;;;;;;;10239994;29;20031;-82
2023/05/13 10:29:22;;;;;;;5.28;2.90;;;;;;;;;;10260833;28;20046;-84
2023/05/13 10:35:00;;;;;;;10.70;2.38;;;;;;;;;;10270718;28;20506;-84
2023/05/13 10:40:12;;;;;;;4.32;2.20;;;;;;;;;;10258973;28;20170;-83
2023/05/13 10:45:16;;;;;;;9.13;2.30;;;;;;;;;;10278718;28;20483;-84
2023/05/13 10:50:23;;;;;;;3.60;1.70;;;;;;;;;;10276110;28;20031;-81
2023/05/13 10:55:25;;;;;;;3.90;2.05;;;;;;;;;;10273868;28;20035;-85
2023/05/13 11:00:30;;;;;;;5.28;2.60;;;;;;;;;;10271046;28;20043;-84
2023/05/13 11:06:14;;;;;;;;;;;;;;;;;;;;;
2023/05/13 11:11:31;;;;;;;6.13;3.70;;;;;;;;;;10275391;28;20275;-83
2023/05/13 11:16:36;;;;;;;6.00;3.15;;;;;;;;;;10251952;28;20023;-85
2023/05/13 11:21:40;;;;;;;4.43;3.47;;;;;;;;;;10260395;28;20586;-85
2023/05/13 11:26:48;;;;;;;7.75;4.53;;;;;;;;;;10260316;28;20022;-85
2023/05/13 11:31:55;;;;;;;6.38;2.88;;;;;;;;;;10211220;29;20031;-88
2023/05/13 11:36:57;;;;;;;7.10;3.83;;;;;;;;;;10205629;29;20030;-88
2023/05/13 11:42:00;;;;;;;11.90;5.40;;;;;;;;;;10233956;28;20039;-88
2023/05/13 11:47:06;;;;;;;11.10;5.05;;;;;;;;;;10236755;29;20031;-86
2023/05/13 11:52:11;;;;;;;19.05;8.57;;;;;;;;;;10214652;29;20031;-87
2023/05/13 11:57:19;;;;;;;7.95;3.80;;;;;;;;;;10213273;29;20130;-88
2023/05/13 12:02:27;;;;;;;5.30;2.95;;;;;;;;;;10232558;29;20020;-86
2023/05/13 12:07:28;;;;;;;11.52;5.57;;;;;;;;;;10230250;29;20039;-85
2023/05/13 12:12:30;;;;;;;13.05;4.97;;;;;;;;;;10240057;29;20585;-86
2023/05/13 12:17:32;;;;;;;18.02;7.65;;;;;;;;;;10224679;29;20039;-85
2023/05/13 12:22:34;;;;;;;8.48;4.78;;;;;;;;;;10244140;29;20031;-86
2023/05/13 12:27:35;;;;;;;9.30;3.63;;;;;;;;;;10244230;28;20051;-82
2023/05/13 12:32:43;;;;;;;6.88;4.32;;;;;;;;;;10241183;29;20031;-85
2023/05/13 12:37:44;;;;;;;17.98;8.65;;;;;;;;;;10244343;29;20118;-84
2023/05/13 12:42:45;;;;;;;7.95;4.55;;;;;;;;;;10224386;29;20039;-82
2023/05/13 12:47:50;;;;;;;18.30;7.00;;;;;;;;;;10242765;29;20554;-82
2023/05/13 12:52:51;;;;;;;6.23;3.23;;;;;;;;;;10216832;29;20073;-82
2023/05/13 12:57:56;;;;;;;7.60;4.00;;;;;;;;;;10213060;28;20503;-83
2023/05/13 13:02:57;;;;;;;20.77;14.15;;;;;;;;;;10241529;28;20455;-85
2023/05/13 13:08:00;;;;;;;7.00;2.97;;;;;;;;;;10221090;28;20532;-83
2023/05/13 13:13:01;;;;;;;9.65;3.53;;;;;;;;;;10237537;29;20042;-83
2023/05/13 13:18:05;;;;;;;8.07;4.75;;;;;;;;;;10238142;29;20046;-83
2023/05/13 13:23:06;;;;;;;14.68;6.18;;;;;;;;;;10215922;29;20042;-84
2023/05/13 13:28:14;;;;;;;11.52;5.38;;;;;;;;;;10242438;28;20066;-84
2023/05/13 13:49:43;;;;;;;8.35;5.18;;;;;;;;;;10249688;28;20034;-84
2023/05/13 14:11:15;;;;;;;10.45;3.67;;;;;;;;;;11520674;23;20384;-83
2023/05/13 14:16:16;;;;;;;11.07;4.05;;;;;;;;;;10187002;29;20024;-83
2023/05/13 14:21:17;;;;;;;5.53;3.15;;;;;;;;;;10203568;29;20047;-84
2023/05/13 14:26:20;;;;;;;5.63;3.78;;;;;;;;;;10188959;29;20036;-83
2023/05/13 14:31:21;;;;;;;6.28;3.20;;;;;;;;;;10200112;29;20036;-84
2023/05/13 14:36:23;;;;;;;4.45;2.75;;;;;;;;;;10203477;29;20031;-84
2023/05/13 14:41:24;;;;;;;4.10;2.60;;;;;;;;;;10200633;29;20389;-83
2023/05/13 14:46:25;;;;;;;9.35;2.90;;;;;;;;;;10200057;29;20027;-84
2023/05/13 14:51:26;;;;;;;7.50;4.15;;;;;;;;;;10198640;29;20023;-84
2023/05/13 14:56:27;;;;;;;10.68;4.63;;;;;;;;;;10193704;29;20455;-84
2023/05/13 15:01:28;;;;;;;9.80;4.20;;;;;;;;;;10197817;29;20504;-84
2023/05/13 15:06:30;;;;;;;34.25;19.02;;;;;;;;;;10196396;29;20109;-84
2023/05/13 15:11:32;;;;;;;6.22;3.50;;;;;;;;;;10199936;29;20784;-83
2023/05/13 15:16:33;;;;;;;9.38;4.53;;;;;;;;;;10193528;29;20043;-84
2023/05/13 15:21:34;;;;;;;4.82;3.08;;;;;;;;;;10183054;29;20046;-83
2023/05/13 15:26:35;;;;;;;7.93;4.20;;;;;;;;;;10198825;29;20155;-82
2023/05/13 15:31:36;;;;;;;16.90;11.57;;;;;;;;;;10198477;29;20047;-84
2023/05/13 15:36:37;;;;;;;15.18;9.25;;;;;;;;;;10176017;29;20450;-83
2023/05/13 15:41:38;;;;;;;16.92;8.60;;;;;;;;;;10191056;29;20063;-84
2023/05/13 15:46:40;;;;;;;9.00;3.80;;;;;;;;;;10197164;29;20447;-83
2023/05/13 15:51:41;;;;;;;13.70;6.40;;;;;;;;;;10192458;29;20039;-83
2023/05/13 15:56:42;;;;;;;16.38;9.05;;;;;;;;;;10195222;29;20403;-81
2023/05/13 16:01:45;;;;;;;12.35;7.18;;;;;;;;;;10186991;29;20043;-84
2023/05/13 16:06:46;;;;;;;15.27;7.65;;;;;;;;;;10200480;29;20038;-83
2023/05/13 16:11:47;;;;;;;10.48;5.78;;;;;;;;;;10192564;29;20060;-83
2023/05/13 16:16:48;;;;;;;14.93;6.60;;;;;;;;;;10194644;29;20040;-85
2023/05/13 16:21:49;;;;;;;9.00;4.43;;;;;;;;;;10202689;29;20039;-83
2023/05/13 16:26:50;;;;;;;7.15;4.32;;;;;;;;;;10200038;29;20123;-83
2023/05/13 16:31:51;;;;;;;7.97;4.60;;;;;;;;;;10206748;29;20028;-84
2023/05/13 16:36:52;;;;;;;8.20;5.20;;;;;;;;;;10206200;29;20040;-83
2023/05/13 16:41:53;;;;;;;9.88;6.28;;;;;;;;;;10204581;29;20617;-85
2023/05/13 16:46:54;;;;;;;16.70;7.90;;;;;;;;;;10204953;29;20034;-82
2023/05/13 16:51:55;;;;;;;13.52;7.07;;;;;;;;;;10205542;29;20028;-82
2023/05/13 16:56:56;;;;;;;12.20;6.80;;;;;;;;;;10206391;29;20099;-82
2023/05/13 17:01:58;;;;;;;20.23;9.30;;;;;;;;;;10205686;29;20039;-84
2023/05/13 17:07:00;;;;;;;7.60;4.68;;;;;;;;;;10193091;29;20806;-83
2023/05/13 17:12:01;;;;;;;7.80;3.92;;;;;;;;;;10204936;29;20138;-82
2023/05/13 17:17:02;;;;;;;4.85;3.20;;;;;;;;;;10206058;29;20027;-82
2023/05/13 17:22:03;;;;;;;4.72;2.90;;;;;;;;;;10203991;29;20035;-82
2023/05/13 17:27:04;;;;;;;4.75;3.33;;;;;;;;;;10204849;29;20400;-83
2023/05/13 17:32:05;;;;;;;7.05;3.45;;;;;;;;;;10205405;29;20621;-83
2023/05/13 17:37:06;;;;;;;5.88;3.50;;;;;;;;;;10204014;29;20115;-83
2023/05/13 17:42:07;;;;;;;4.43;3.35;;;;;;;;;;10208262;29;20056;-84
2023/05/13 17:47:08;;;;;;;5.80;3.50;;;;;;;;;;10213425;29;20027;-84
2023/05/13 17:52:09;;;;;;;8.27;4.18;;;;;;;;;;10203024;29;20036;-83
2023/05/13 17:57:11;;;;;;;6.32;3.38;;;;;;;;;;10200104;29;20369;-83
2023/05/13 18:02:12;;;;;;;6.80;3.53;;;;;;;;;;10202303;29;20039;-83
2023/05/13 18:07:13;;;;;;;4.30;3.33;;;;;;;;;;10203332;29;20094;-87
2023/05/13 18:12:14;;;;;;;4.13;3.20;;;;;;;;;;10203678;29;20484;-83
2023/05/13 18:17:15;;;;;;;6.68;3.63;;;;;;;;;;10203856;29;20038;-84
2023/05/13 18:22:16;;;;;;;5.72;3.42;;;;;;;;;;10203095;29;20051;-83
2023/05/13 18:27:17;;;;;;;5.95;3.75;;;;;;;;;;10203294;29;20043;-83
2023/05/13 18:32:18;;;;;;;5.20;3.90;;;;;;;;;;10201611;29;20102;-83
2023/05/13 18:37:19;;;;;;;5.97;4.20;;;;;;;;;;10202524;29;20082;-83
2023/05/13 18:42:20;;;;;;;12.00;3.80;;;;;;;;;;10198336;29;20039;-87
2023/05/13 18:47:21;;;;;;;6.97;3.50;;;;;;;;;;10191586;29;20032;-84
2023/05/13 18:52:22;;;;;;;6.18;4.18;;;;;;;;;;10172180;29;20040;-83
2023/05/13 18:57:23;;;;;;;7.85;3.55;;;;;;;;;;10185394;29;20028;-83
2023/05/13 19:02:24;;;;;;;6.70;4.10;;;;;;;;;;10202585;29;20058;-83
2023/05/13 19:07:25;;;;;;;9.73;4.43;;;;;;;;;;10201874;29;20079;-83
2023/05/13 19:12:26;;;;;;;10.02;5.50;;;;;;;;;;10198773;29;20059;-82
2023/05/13 19:17:27;;;;;;;5.72;4.22;;;;;;;;;;10199280;29;20171;-83
2023/05/13 19:22:28;;;;;;;11.32;4.70;;;;;;;;;;10201178;29;20031;-82
2023/05/13 19:27:30;;;;;;;7.50;4.57;;;;;;;;;;10198672;29;20038;-82
2023/05/13 19:32:31;;;;;;;8.50;4.70;;;;;;;;;;10201390;29;20119;-83
2023/05/13 19:37:32;;;;;;;8.88;5.05;;;;;;;;;;10201377;29;20052;-84
2023/05/13 19:42:33;;;;;;;7.90;5.68;;;;;;;;;;10199426;29;20027;-84
2023/05/13 19:47:34;;;;;;;9.52;5.20;;;;;;;;;;10200479;29;20290;-83
2023/05/13 19:52:35;;;;;;;10.57;5.30;;;;;;;;;;10193385;29;20513;-82
2023/05/13 19:57:40;;;;;;;10.50;5.35;;;;;;;;;;10197924;29;20464;-83
2023/05/13 20:02:41;;;;;;;10.60;5.47;;;;;;;;;;10197337;29;20036;-83
2023/05/13 20:07:42;;;;;;;12.75;5.78;;;;;;;;;;10198202;29;20424;-82
2023/05/13 20:12:44;;;;;;;9.38;5.93;;;;;;;;;;10205788;29;20062;-84
2023/05/13 20:17:45;;;;;;;10.68;6.10;;;;;;;;;;10206862;29;20047;-82
2023/05/13 20:22:46;;;;;;;16.70;7.63;;;;;;;;;;10205972;29;20138;-84
2023/05/13 20:27:47;;;;;;;15.77;7.35;;;;;;;;;;10207570;29;20031;-82
2023/05/13 20:32:48;;;;;;;12.27;6.90;;;;;;;;;;10206512;29;20031;-82
2023/05/13 20:37:49;;;;;;;12.48;7.07;;;;;;;;;;10204389;29;20127;-82
2023/05/13 20:42:51;;;;;;;12.77;7.57;;;;;;;;;;10205441;29;20039;-84
2023/05/13 20:47:52;;;;;;;16.08;8.35;;;;;;;;;;10204558;29;20043;-83
2023/05/13 20:52:53;;;;;;;14.70;8.88;;;;;;;;;;10205511;29;20039;-82
2023/05/13 20:57:54;;;;;;;13.02;8.05;;;;;;;;;;10204768;29;20186;-82
2023/05/13 21:02:55;;;;;;;14.40;8.38;;;;;;;;;;10201500;29;20047;-83
2023/05/13 21:07:56;;;;;;;15.68;8.07;;;;;;;;;;10205492;29;20179;-83
2023/05/13 21:12:57;;;;;;;13.02;8.20;;;;;;;;;;10205109;29;20507;-83
2023/05/13 21:17:58;;;;;;;15.20;7.82;;;;;;;;;;10200557;29;20118;-82
2023/05/13 21:23:00;;;;;;;15.88;9.20;;;;;;;;;;10204167;29;20127;-84
2023/05/13 21:28:01;;;;;;;16.73;9.27;;;;;;;;;;10206415;29;20107;-84
2023/05/13 21:33:02;;;;;;;15.10;8.68;;;;;;;;;;10198592;29;20439;-83
2023/05/13 21:38:03;;;;;;;14.67;9.00;;;;;;;;;;10205352;29;20038;-82
2023/05/13 21:43:04;;;;;;;16.92;9.73;;;;;;;;;;10205177;29;20037;-83
2023/05/13 21:48:05;;;;;;;16.03;9.67;;;;;;;;;;10213581;29;20464;-82
2023/05/13 21:53:06;;;;;;;17.63;8.60;;;;;;;;;;10201906;29;20040;-83
2023/05/13 21:58:07;;;;;;;17.60;9.05;;;;;;;;;;10203453;29;20486;-83
2023/05/13 22:03:08;;;;;;;20.05;10.07;;;;;;;;;;10202225;29;20369;-82
2023/05/13 22:08:09;;;;;;;15.50;9.33;;;;;;;;;;10204526;29;20032;-82
2023/05/13 22:13:10;;;;;;;16.00;9.20;;;;;;;;;;10203994;29;20103;-85
2023/05/13 22:18:11;;;;;;;15.80;8.45;;;;;;;;;;10202038;29;20032;-82
2023/05/13 22:23:12;;;;;;;14.67;9.37;;;;;;;;;;10188529;29;20032;-84
2023/05/13 22:28:13;;;;;;;17.40;9.40;;;;;;;;;;10193592;29;20031;-83
2023/05/13 22:33:14;;;;;;;14.70;9.30;;;;;;;;;;10196639;29;20035;-84
2023/05/13 22:38:15;;;;;;;15.97;9.00;;;;;;;;;;10194603;29;20467;-83
2023/05/13 22:43:16;;;;;;;16.70;9.97;;;;;;;;;;10200619;29;20468;-82
2023/05/13 22:48:17;;;;;;;14.63;8.63;;;;;;;;;;10200267;29;20035;-82
2023/05/13 22:53:18;;;;;;;19.83;10.30;;;;;;;;;;10193369;29;20457;-83
2023/05/13 22:58:20;;;;;;;17.13;9.33;;;;;;;;;;10215485;29;20075;-82
2023/05/13 23:03:21;;;;;;;14.57;8.67;;;;;;;;;;10193428;29;20039;-82
2023/05/13 23:08:22;;;;;;;14.40;8.90;;;;;;;;;;10200406;29;20502;-83
2023/05/13 23:13:24;;;;;;;15.63;9.50;;;;;;;;;;10199819;29;20060;-84
2023/05/13 23:18:25;;;;;;;14.87;9.23;;;;;;;;;;10199620;29;20109;-83
2023/05/13 23:23:26;;;;;;;17.50;10.23;;;;;;;;;;10197477;29;20127;-82
2023/05/13 23:28:27;;;;;;;15.63;10.00;;;;;;;;;;10200576;29;20051;-82
2023/05/13 23:33:28;;;;;;;18.43;11.30;;;;;;;;;;10200574;29;20522;-81
2023/05/13 23:38:29;;;;;;;17.37;9.93;;;;;;;;;;10198358;29;20518;-82
2023/05/13 23:43:30;;;;;;;16.00;10.40;;;;;;;;;;10207721;29;20144;-81
2023/05/13 23:48:31;;;;;;;17.17;10.07;;;;;;;;;;10209678;29;20051;-83
2023/05/13 23:53:32;;;;;;;17.63;10.03;;;;;;;;;;10205921;29;20134;-82
2023/05/13 23:58:34;;;;;;;17.33;9.57;;;;;;;;;;10208734;29;20532;-82
